createdAt,value
2022-09-23T00:00:08.990Z,100.00
2022-09-23T00:02:37.519Z,100.00
2022-09-23T00:05:10.471Z,100.00
2022-09-23T00:07:40.545Z,100.00
2022-09-23T00:10:11.724Z,100.00
2022-09-23T00:12:40.017Z,100.00
2022-09-23T00:15:11.259Z,100.00
2022-09-23T00:17:40.872Z,100.00
2022-09-23T00:20:10.477Z,100.00
2022-09-23T00:22:39.469Z,100.00
2022-09-23T00:25:11.446Z,100.00
2022-09-23T00:27:42.078Z,100.00
2022-09-23T00:30:11.567Z,100.00
2022-09-23T00:32:40.329Z,100.00
2022-09-23T00:35:10.750Z,100.00
2022-09-23T00:37:39.162Z,100.00
2022-09-23T00:40:08.845Z,100.00
2022-09-23T00:42:38.590Z,100.00
2022-09-23T00:45:12.548Z,100.00
2022-09-23T00:47:49.271Z,100.00
2022-09-23T00:50:25.503Z,100.00
2022-09-23T00:52:57.742Z,100.00
2022-09-23T00:55:29.777Z,100.00
2022-09-23T00:58:01.658Z,100.00
2022-09-23T01:00:30.858Z,100.00
2022-09-23T01:03:00.056Z,100.00
2022-09-23T01:05:31.163Z,100.00
2022-09-23T01:08:02.086Z,100.00
2022-09-23T01:10:37.414Z,100.00
2022-09-23T01:13:18.593Z,100.00
2022-09-23T01:15:51.046Z,100.00
2022-09-23T01:18:32.844Z,100.00
2022-09-23T01:21:22.267Z,100.00
2022-09-23T01:24:30.826Z,100.00
2022-09-23T01:27:11.411Z,100.00
2022-09-23T01:30:04.720Z,100.00
2022-09-23T01:32:46.199Z,100.00
2022-09-23T01:35:27.192Z,100.00
2022-09-23T01:38:09.876Z,100.00
2022-09-23T01:40:50.497Z,100.00
2022-09-23T01:43:25.591Z,100.00
2022-09-23T01:46:00.677Z,100.00
2022-09-23T01:48:36.748Z,100.00
2022-09-23T01:51:10.750Z,100.00
2022-09-23T01:53:46.999Z,100.00
2022-09-23T01:56:19.052Z,100.00
2022-09-23T01:58:53.886Z,100.00
2022-09-23T02:01:28.881Z,100.00
2022-09-23T02:04:05.297Z,100.00
2022-09-23T02:06:40.404Z,100.00
2022-09-23T02:09:13.585Z,100.00
2022-09-23T02:11:45.515Z,100.00
2022-09-23T02:14:19.903Z,100.00
2022-09-23T02:16:52.295Z,100.00
2022-09-23T02:19:28.840Z,100.00
2022-09-23T02:22:04.606Z,100.00
2022-09-23T02:24:36.104Z,100.00
2022-09-23T02:27:13.639Z,100.00
2022-09-23T02:29:50.661Z,100.00
2022-09-23T02:32:25.009Z,100.00
2022-09-23T02:35:01.874Z,100.00
2022-09-23T02:37:35.009Z,100.00
2022-09-23T02:40:13.201Z,100.00
2022-09-23T02:42:52.332Z,100.00
2022-09-23T02:45:20.930Z,100.00
2022-09-23T02:47:54.452Z,100.00
2022-09-23T02:50:24.401Z,100.00
2022-09-23T02:52:53.556Z,100.00
2022-09-23T02:55:24.692Z,100.00
2022-09-23T02:57:53.562Z,100.00
2022-09-23T03:00:23.949Z,100.00
2022-09-23T03:03:07.521Z,100.00
2022-09-23T03:05:45.584Z,100.00
2022-09-23T03:08:29.744Z,100.00
2022-09-23T03:11:06.012Z,100.00
2022-09-23T03:13:43.013Z,100.00
2022-09-23T03:16:18.430Z,100.00
2022-09-23T03:18:53.195Z,100.00
2022-09-23T03:21:29.009Z,100.00
2022-09-23T03:24:02.145Z,100.00
2022-09-23T03:26:35.357Z,100.00
2022-09-23T03:29:05.162Z,100.00
2022-09-23T03:31:34.653Z,100.00
2022-09-23T03:34:07.233Z,100.00
2022-09-23T03:36:53.974Z,100.00
2022-09-23T03:39:31.525Z,100.00
2022-09-23T03:42:03.544Z,100.00
2022-09-23T03:44:39.162Z,100.00
2022-09-23T03:47:07.858Z,100.00
2022-09-23T03:49:39.677Z,100.00
2022-09-23T03:52:09.770Z,100.00
2022-09-23T03:54:38.193Z,100.00
2022-09-23T03:57:07.365Z,100.00
2022-09-23T03:59:35.655Z,100.00
2022-09-23T04:02:04.086Z,100.00
2022-09-23T04:04:34.381Z,100.00
2022-09-23T04:07:03.049Z,100.00
2022-09-23T04:09:33.197Z,100.00
2022-09-23T04:12:01.745Z,100.00
2022-09-23T04:14:30.219Z,100.00
2022-09-23T04:16:58.656Z,100.00
2022-09-23T04:19:27.249Z,100.00
2022-09-23T04:21:55.607Z,100.00
2022-09-23T04:24:24.026Z,100.00
2022-09-23T04:26:55.399Z,100.00
2022-09-23T04:29:25.145Z,100.00
2022-09-23T04:31:56.445Z,100.00
2022-09-23T04:34:24.859Z,100.00
2022-09-23T04:36:53.320Z,100.00
2022-09-23T04:39:21.652Z,100.00
2022-09-23T04:41:50.206Z,100.00
2022-09-23T04:44:22.577Z,100.00
2022-09-23T04:46:51.776Z,100.00
2022-09-23T04:49:20.387Z,100.00
2022-09-23T04:51:48.857Z,100.00
2022-09-23T04:54:17.315Z,100.00
2022-09-23T04:56:45.768Z,100.00
2022-09-23T04:59:14.065Z,100.00
2022-09-23T05:01:43.941Z,100.00
2022-09-23T05:04:14.003Z,100.00
2022-09-23T05:06:44.036Z,100.00
2022-09-23T05:09:16.176Z,100.00
2022-09-23T05:11:45.095Z,100.00
2022-09-23T05:14:14.203Z,100.00
2022-09-23T05:16:44.287Z,100.00
2022-09-23T05:19:13.593Z,100.00
2022-09-23T05:21:42.167Z,100.00
2022-09-23T05:24:10.890Z,100.00
2022-09-23T05:26:39.415Z,100.00
2022-09-23T05:29:08.047Z,100.00
2022-09-23T05:31:36.827Z,100.00
2022-09-23T05:34:07.501Z,100.00
2022-09-23T05:36:38.922Z,100.00
2022-09-23T05:39:08.865Z,100.00
2022-09-23T05:41:41.709Z,100.00
2022-09-23T05:44:10.190Z,100.00
2022-09-23T05:46:38.621Z,100.00
2022-09-23T05:49:08.506Z,100.00
2022-09-23T05:51:37.184Z,100.00
2022-09-23T05:54:07.137Z,100.00
2022-09-23T05:56:37.357Z,100.00
2022-09-23T05:59:07.089Z,100.00
2022-09-23T06:01:38.646Z,100.00
2022-09-23T06:04:15.455Z,100.00
2022-09-23T06:06:44.235Z,100.00
2022-09-23T06:09:14.687Z,100.00
2022-09-23T06:11:43.497Z,100.00
2022-09-23T06:14:13.916Z,100.00
2022-09-23T06:16:43.270Z,100.00
2022-09-23T06:19:12.983Z,100.00
2022-09-23T06:21:41.890Z,100.00
2022-09-23T06:24:15.413Z,100.00
2022-09-23T06:26:45.368Z,100.00
2022-09-23T06:29:14.593Z,100.00
2022-09-23T06:31:43.580Z,100.00
2022-09-23T06:34:14.999Z,100.00
2022-09-23T06:36:46.212Z,100.00
2022-09-23T06:39:17.156Z,100.00
2022-09-23T06:41:46.325Z,100.00
2022-09-23T06:44:14.919Z,100.00
2022-09-23T06:46:44.214Z,100.00
2022-09-23T06:49:14.120Z,100.00
2022-09-23T06:51:42.901Z,100.00
2022-09-23T06:54:12.341Z,100.00
2022-09-23T06:56:40.746Z,100.00
2022-09-23T06:59:13.246Z,100.00
2022-09-23T07:01:42.059Z,100.00
2022-09-23T07:04:10.892Z,100.00
2022-09-23T07:06:40.641Z,100.00
2022-09-23T07:09:09.860Z,100.00
2022-09-23T07:11:39.940Z,100.00
2022-09-23T07:14:08.438Z,100.00
2022-09-23T07:16:36.976Z,100.00
2022-09-23T07:19:05.512Z,100.00
2022-09-23T07:21:40.533Z,100.00
2022-09-23T07:24:09.232Z,100.00
2022-09-23T07:26:40.120Z,100.00
2022-09-23T07:29:14.708Z,100.00
2022-09-23T07:31:43.229Z,100.00
2022-09-23T07:34:12.905Z,100.00
2022-09-23T07:36:42.890Z,100.00
2022-09-23T07:39:13.385Z,100.00
2022-09-23T07:41:44.734Z,100.00
2022-09-23T07:44:13.618Z,100.00
2022-09-23T07:46:42.181Z,100.00
2022-09-23T07:49:10.866Z,100.00
2022-09-23T07:51:41.137Z,100.00
2022-09-23T07:54:13.113Z,100.00
2022-09-23T07:56:42.360Z,100.00
2022-09-23T07:59:16.777Z,100.00
2022-09-23T08:01:48.364Z,100.00
2022-09-23T08:04:19.405Z,100.00
2022-09-23T08:06:50.026Z,100.00
2022-09-23T08:09:21.316Z,100.00
2022-09-23T08:11:51.077Z,100.00
2022-09-23T08:14:19.898Z,100.00
2022-09-23T08:16:48.918Z,100.00
2022-09-23T08:19:18.178Z,100.00
2022-09-23T08:21:48.007Z,100.00
2022-09-23T08:24:18.605Z,100.00
2022-09-23T08:26:49.558Z,100.00
2022-09-23T08:29:19.577Z,100.00
2022-09-23T08:31:49.716Z,100.00
2022-09-23T08:34:19.045Z,100.00
2022-09-23T08:36:48.387Z,100.00
2022-09-23T08:39:19.124Z,100.00
2022-09-23T08:42:04.921Z,100.00
2022-09-23T08:44:48.041Z,100.00
2022-09-23T08:47:22.750Z,100.00
2022-09-23T08:50:03.858Z,100.00
2022-09-23T08:52:37.126Z,100.00
2022-09-23T08:55:07.573Z,100.00
2022-09-23T08:58:02.337Z,100.00
2022-09-23T09:00:42.966Z,100.00
2022-09-23T09:03:22.121Z,100.00
2022-09-23T09:05:54.458Z,100.00
2022-09-23T09:08:28.034Z,100.00
2022-09-23T09:10:58.851Z,100.00
2022-09-23T09:13:33.216Z,100.00
2022-09-23T09:16:21.015Z,100.00
2022-09-23T09:18:59.321Z,100.00
2022-09-23T09:21:38.122Z,100.00
2022-09-23T09:24:17.618Z,100.00
2022-09-23T09:26:46.172Z,100.00
2022-09-23T09:29:36.118Z,100.00
2022-09-23T09:32:17.603Z,100.00
2022-09-23T09:34:54.185Z,100.00
2022-09-23T09:37:31.648Z,100.00
2022-09-23T09:40:00.585Z,100.00
2022-09-23T09:42:43.440Z,100.00
2022-09-23T09:45:24.315Z,100.00
2022-09-23T09:48:03.134Z,100.00
2022-09-23T09:50:47.235Z,100.00
2022-09-23T09:53:24.158Z,100.00
2022-09-23T09:56:11.756Z,100.00
2022-09-23T09:58:47.834Z,100.00
2022-09-23T10:01:23.476Z,100.00
2022-09-23T10:03:58.432Z,100.00
2022-09-23T10:06:29.494Z,100.00
2022-09-23T10:09:11.985Z,100.00
2022-09-23T10:11:41.468Z,100.00
2022-09-23T10:14:17.598Z,100.00
2022-09-23T10:17:05.534Z,100.00
2022-09-23T10:19:37.251Z,100.00
2022-09-23T10:22:16.450Z,100.00
2022-09-23T10:24:50.279Z,100.00
2022-09-23T10:27:28.469Z,100.00
2022-09-23T10:29:58.248Z,100.00
2022-09-23T10:32:31.946Z,99.41
2022-09-23T10:35:04.886Z,98.89
2022-09-23T10:37:37.625Z,99.79
2022-09-23T10:40:48.994Z,92.44
2022-09-23T10:43:46.005Z,94.72
2022-09-23T10:46:38.430Z,94.45
2022-09-23T10:49:45.332Z,80.43
2022-09-23T10:52:32.198Z,87.91
2022-09-23T10:55:13.008Z,85.46
2022-09-23T10:57:58.139Z,70.74
2022-09-23T11:00:36.417Z,82.00
2022-09-23T11:03:34.783Z,70.28
2022-09-23T11:06:17.005Z,66.03
2022-09-23T11:08:58.870Z,62.89
2022-09-23T11:11:41.181Z,64.86
2022-09-23T11:14:42.722Z,62.92
2022-09-23T11:17:28.442Z,64.39
2022-09-23T11:20:31.378Z,55.89
2022-09-23T11:23:32.242Z,56.83
2022-09-23T11:26:13.152Z,59.18
2022-09-23T11:28:56.765Z,55.48
2022-09-23T11:31:38.345Z,61.43
2022-09-23T11:34:31.085Z,52.38
2022-09-23T11:37:05.517Z,58.30
2022-09-23T11:39:39.100Z,53.94
2022-09-23T11:42:14.750Z,54.98
2022-09-23T11:44:50.148Z,52.92
2022-09-23T11:47:23.130Z,56.22
2022-09-23T11:49:58.606Z,56.43
2022-09-23T11:52:32.923Z,54.00
2022-09-23T11:55:17.202Z,54.00
2022-09-23T11:57:52.647Z,55.83
2022-09-23T12:00:24.306Z,54.56
2022-09-23T12:03:06.692Z,55.29
2022-09-23T12:05:40.777Z,51.74
2022-09-23T12:08:19.260Z,53.87
2022-09-23T12:10:56.801Z,54.32
2022-09-23T12:13:30.701Z,53.02
2022-09-23T12:16:17.057Z,50.44
2022-09-23T12:18:56.153Z,49.70
2022-09-23T12:21:51.827Z,46.34
2022-09-23T12:24:34.235Z,48.00
2022-09-23T12:27:11.212Z,45.90
2022-09-23T12:29:42.802Z,48.21
2022-09-23T12:32:19.065Z,50.26
2022-09-23T12:34:52.333Z,51.66
2022-09-23T12:37:27.231Z,50.12
2022-09-23T12:40:00.342Z,50.88
2022-09-23T12:42:31.385Z,50.98
2022-09-23T12:45:34.902Z,50.89
2022-09-23T12:48:06.003Z,50.37
2022-09-23T12:51:07.916Z,46.93
2022-09-23T12:53:55.608Z,46.66
2022-09-23T12:57:05.247Z,46.67
2022-09-23T13:00:16.329Z,46.50
2022-09-23T13:03:09.100Z,46.38
2022-09-23T13:06:02.403Z,47.40
2022-09-23T13:08:31.787Z,48.41
2022-09-23T13:11:03.640Z,47.71
2022-09-23T13:13:37.443Z,47.45
2022-09-23T13:16:15.818Z,47.10
2022-09-23T13:18:54.846Z,47.76
2022-09-23T13:22:07.868Z,47.58
2022-09-23T13:24:45.795Z,49.21
2022-09-23T13:27:29.344Z,48.99
2022-09-23T13:30:04.088Z,51.44
2022-09-23T13:32:38.504Z,52.79
2022-09-23T13:35:20.254Z,52.02
2022-09-23T13:37:50.135Z,53.29
2022-09-23T13:40:24.023Z,52.27
2022-09-23T13:42:58.642Z,50.15
2022-09-23T13:45:31.278Z,51.00
2022-09-23T13:48:04.430Z,50.25
2022-09-23T13:50:35.280Z,50.78
2022-09-23T13:53:12.201Z,51.23
2022-09-23T13:55:49.000Z,53.29
2022-09-23T13:58:22.540Z,53.96
2022-09-23T14:00:53.265Z,53.29
2022-09-23T14:03:35.390Z,52.24
2022-09-23T14:06:09.043Z,52.13
2022-09-23T14:08:40.488Z,53.36
2022-09-23T14:11:09.073Z,53.46
2022-09-23T14:13:43.552Z,54.52
2022-09-23T14:16:16.116Z,56.23
2022-09-23T14:18:46.776Z,55.25
2022-09-23T14:21:29.412Z,53.54
2022-09-23T14:23:58.168Z,55.91
2022-09-23T14:26:27.844Z,57.22
2022-09-23T14:28:56.426Z,59.33
2022-09-23T14:31:26.519Z,60.67
2022-09-23T14:33:55.237Z,62.17
2022-09-23T14:36:41.678Z,65.02
2022-09-23T14:39:12.513Z,67.04
2022-09-23T14:41:45.242Z,64.88
2022-09-23T14:44:22.834Z,63.63
2022-09-23T14:46:58.441Z,63.30
2022-09-23T14:49:31.114Z,63.37
2022-09-23T14:52:02.983Z,62.25
2022-09-23T14:54:35.955Z,63.44
2022-09-23T14:57:19.390Z,65.39
2022-09-23T14:59:52.359Z,66.81
2022-09-23T15:02:36.576Z,64.61
2022-09-23T15:05:20.208Z,65.32
2022-09-23T15:07:51.808Z,68.54
2022-09-23T15:10:24.896Z,67.19
2022-09-23T15:12:54.654Z,69.05
2022-09-23T15:15:28.085Z,70.77
2022-09-23T15:18:06.268Z,70.40
2022-09-23T15:20:35.974Z,73.63
2022-09-23T15:23:04.717Z,75.96
2022-09-23T15:25:35.830Z,76.65
2022-09-23T15:28:18.152Z,76.57
2022-09-23T15:30:46.967Z,79.14
2022-09-23T15:33:16.961Z,79.96
2022-09-23T15:35:48.757Z,81.02
2022-09-23T15:38:17.884Z,83.61
2022-09-23T15:40:46.420Z,84.40
2022-09-23T15:43:21.222Z,84.90
2022-09-23T15:45:53.067Z,87.27
2022-09-23T15:48:25.929Z,88.92
2022-09-23T15:50:55.482Z,89.90
2022-09-23T15:53:25.889Z,88.84
2022-09-23T15:55:55.799Z,89.83
2022-09-23T15:58:26.171Z,90.73
2022-09-23T16:00:57.246Z,89.53
2022-09-23T16:03:29.547Z,91.27
2022-09-23T16:06:02.495Z,92.50
2022-09-23T16:08:33.209Z,91.96
2022-09-23T16:11:02.021Z,90.72
2022-09-23T16:13:30.457Z,91.57
2022-09-23T16:15:59.091Z,93.91
2022-09-23T16:18:29.250Z,93.83
2022-09-23T16:20:59.130Z,94.97
2022-09-23T16:23:36.031Z,96.61
2022-09-23T16:26:07.614Z,98.35
2022-09-23T16:28:38.375Z,100.00
2022-09-23T16:31:07.238Z,100.00
2022-09-23T16:33:37.236Z,100.00
2022-09-23T16:36:06.736Z,100.00
2022-09-23T16:38:35.250Z,100.00
2022-09-23T16:41:03.922Z,100.00
2022-09-23T16:43:39.685Z,100.00
2022-09-23T16:46:09.087Z,100.00
2022-09-23T16:48:40.703Z,100.00
2022-09-23T16:51:09.643Z,100.00
2022-09-23T16:53:39.346Z,100.00
2022-09-23T16:56:09.762Z,100.00
2022-09-23T16:58:38.602Z,100.00
2022-09-23T17:01:26.846Z,100.00
2022-09-23T17:03:56.821Z,100.00
2022-09-23T17:06:27.956Z,100.00
2022-09-23T17:08:56.845Z,100.00
2022-09-23T17:11:25.391Z,100.00
2022-09-23T17:13:53.724Z,100.00
2022-09-23T17:16:28.237Z,100.00
2022-09-23T17:18:58.487Z,100.00
2022-09-23T17:21:29.286Z,100.00
2022-09-23T17:23:59.054Z,100.00
2022-09-23T17:26:28.582Z,100.00
2022-09-23T17:28:59.447Z,100.00
2022-09-23T17:31:28.260Z,100.00
2022-09-23T17:33:58.154Z,100.00
2022-09-23T17:36:28.266Z,100.00
2022-09-23T17:38:57.321Z,100.00
2022-09-23T17:41:28.370Z,100.00
2022-09-23T17:43:58.711Z,100.00
2022-09-23T17:46:29.187Z,100.00
2022-09-23T17:48:59.341Z,100.00
2022-09-23T17:51:27.791Z,100.00
2022-09-23T17:53:56.880Z,100.00
2022-09-23T17:56:26.667Z,100.00
2022-09-23T17:58:55.557Z,100.00
2022-09-23T18:01:26.835Z,100.00
2022-09-23T18:03:56.525Z,100.00
2022-09-23T18:06:28.343Z,100.00
2022-09-23T18:08:57.228Z,100.00
2022-09-23T18:11:28.184Z,100.00
2022-09-23T18:13:58.642Z,100.00
2022-09-23T18:16:29.412Z,100.00
2022-09-23T18:19:00.409Z,100.00
2022-09-23T18:21:33.180Z,100.00
2022-09-23T18:24:28.203Z,100.00
2022-09-23T18:26:52.929Z,100.00
2022-09-23T18:29:21.464Z,100.00
2022-09-23T18:31:51.162Z,100.00
2022-09-23T18:34:20.485Z,100.00
2022-09-23T18:36:50.793Z,100.00
2022-09-23T18:39:25.074Z,100.00
2022-09-23T18:41:53.788Z,100.00
2022-09-23T18:44:23.398Z,100.00
2022-09-23T18:46:52.390Z,100.00
2022-09-23T18:49:38.583Z,100.00
2022-09-23T18:52:08.507Z,100.00
2022-09-23T18:54:36.968Z,100.00
2022-09-23T18:57:05.955Z,100.00
2022-09-23T18:59:34.586Z,100.00
2022-09-23T19:02:03.329Z,100.00
2022-09-23T19:04:32.332Z,100.00
2022-09-23T19:07:00.936Z,100.00
2022-09-23T19:09:31.261Z,100.00
2022-09-23T19:11:59.692Z,100.00
2022-09-23T19:14:28.373Z,100.00
2022-09-23T19:16:58.585Z,100.00
2022-09-23T19:19:30.290Z,100.00
2022-09-23T19:21:59.225Z,100.00
2022-09-23T19:24:28.297Z,100.00
2022-09-23T19:26:58.584Z,100.00
2022-09-23T19:29:28.512Z,100.00
2022-09-23T19:31:59.122Z,100.00
2022-09-23T19:34:29.385Z,100.00
2022-09-23T19:36:58.772Z,100.00
2022-09-23T19:39:31.694Z,100.00
2022-09-23T19:42:02.146Z,100.00
2022-09-23T19:44:31.823Z,100.00
2022-09-23T19:47:01.212Z,100.00
2022-09-23T19:49:31.211Z,100.00
2022-09-23T19:52:00.466Z,100.00
2022-09-23T19:54:29.357Z,100.00
2022-09-23T19:56:58.148Z,100.00
2022-09-23T19:59:28.263Z,100.00
2022-09-23T20:01:57.379Z,100.00
2022-09-23T20:04:26.294Z,100.00
2022-09-23T20:06:54.829Z,100.00
2022-09-23T20:09:23.550Z,100.00
2022-09-23T20:11:52.327Z,100.00
2022-09-23T20:14:22.324Z,100.00
2022-09-23T20:16:53.275Z,100.00
2022-09-23T20:19:22.125Z,100.00
2022-09-23T20:22:11.172Z,100.00
2022-09-23T20:24:39.828Z,100.00
2022-09-23T20:27:11.226Z,100.00
2022-09-23T20:29:40.534Z,100.00
2022-09-23T20:32:11.444Z,100.00
2022-09-23T20:34:44.195Z,100.00
2022-09-23T20:37:12.778Z,100.00
2022-09-23T20:39:41.233Z,100.00
2022-09-23T20:42:10.346Z,100.00
2022-09-23T20:44:38.814Z,100.00
2022-09-23T20:47:07.725Z,100.00
2022-09-23T20:49:37.998Z,100.00
2022-09-23T20:52:06.970Z,100.00
2022-09-23T20:54:38.994Z,100.00
2022-09-23T20:57:08.327Z,100.00
2022-09-23T20:59:37.466Z,100.00
2022-09-23T21:02:07.227Z,100.00
2022-09-23T21:04:37.304Z,100.00
2022-09-23T21:07:06.187Z,100.00
2022-09-23T21:09:34.889Z,100.00
2022-09-23T21:12:07.389Z,100.00
2022-09-23T21:14:36.042Z,100.00
2022-09-23T21:17:04.640Z,100.00
2022-09-23T21:19:35.453Z,100.00
2022-09-23T21:22:05.539Z,100.00
2022-09-23T21:25:08.461Z,100.00
2022-09-23T21:27:23.001Z,100.00
2022-09-23T21:29:51.514Z,100.00
2022-09-23T21:32:19.984Z,100.00
2022-09-23T21:34:49.027Z,100.00
2022-09-23T21:37:18.944Z,100.00
2022-09-23T21:40:07.554Z,100.00
2022-09-23T21:42:36.278Z,100.00
2022-09-23T21:45:05.323Z,100.00
2022-09-23T21:47:34.111Z,100.00
2022-09-23T21:50:02.737Z,100.00
2022-09-23T21:52:32.727Z,100.00
2022-09-23T21:55:01.718Z,100.00
2022-09-23T21:57:31.306Z,100.00
2022-09-23T22:00:02.883Z,100.00
2022-09-23T22:02:33.962Z,100.00
2022-09-23T22:05:02.625Z,100.00
2022-09-23T22:07:33.247Z,100.00
2022-09-23T22:10:01.924Z,100.00
2022-09-23T22:12:32.734Z,100.00
2022-09-23T22:15:01.258Z,100.00
2022-09-23T22:17:32.590Z,100.00
2022-09-23T22:20:02.162Z,100.00
2022-09-23T22:22:32.076Z,100.00
2022-09-23T22:25:00.587Z,100.00
2022-09-23T22:27:29.146Z,100.00
2022-09-23T22:30:14.964Z,100.00
2022-09-23T22:32:43.811Z,100.00
2022-09-23T22:35:16.851Z,100.00
2022-09-23T22:37:47.393Z,100.00
2022-09-23T22:40:18.252Z,100.00
2022-09-23T22:42:46.918Z,100.00
2022-09-23T22:45:15.332Z,100.00
2022-09-23T22:47:46.313Z,100.00
2022-09-23T22:50:15.281Z,100.00
2022-09-23T22:52:44.342Z,100.00
2022-09-23T22:55:14.317Z,100.00
2022-09-23T22:57:42.800Z,100.00
2022-09-23T23:00:13.497Z,100.00
2022-09-23T23:02:42.584Z,100.00
2022-09-23T23:05:11.684Z,100.00
2022-09-23T23:07:40.633Z,100.00
2022-09-23T23:10:10.503Z,100.00
2022-09-23T23:12:42.086Z,100.00
2022-09-23T23:15:12.992Z,100.00
2022-09-23T23:17:43.610Z,100.00
2022-09-23T23:20:12.875Z,100.00
2022-09-23T23:22:41.355Z,100.00
2022-09-23T23:25:11.266Z,100.00
2022-09-23T23:27:41.425Z,100.00
2022-09-23T23:30:10.688Z,100.00
2022-09-23T23:32:39.230Z,100.00
2022-09-23T23:35:09.058Z,100.00
2022-09-23T23:37:37.701Z,100.00
2022-09-23T23:40:07.213Z,100.00
2022-09-23T23:42:35.764Z,100.00
2022-09-23T23:45:06.499Z,100.00
2022-09-23T23:47:35.627Z,100.00
2022-09-23T23:50:05.847Z,100.00
2022-09-23T23:52:34.539Z,100.00
2022-09-23T23:55:03.198Z,100.00
2022-09-23T23:57:31.750Z,100.00
